sensor_id;sensor_type;location;lat;lon;timestamp;pressure;altitude;pressure_sealevel;temperature;humidity
54389;BME280;40975;50.390;8.640;2023-02-03T00:00:02;100021.00;;;6.30;100.00
54389;BME280;40975;50.390;8.640;2023-02-03T00:02:36;100010.75;;;6.25;100.00
54389;BME280;40975;50.390;8.640;2023-02-03T00:05:01;100023.00;;;6.26;100.00
54389;BME280;40975;50.390;8.640;2023-02-03T00:07:27;100032.50;;;6.29;100.00
54389;BME280;40975;50.390;8.640;2023-02-03T00:09:54;100033.25;;;6.31;100.00
54389;BME280;40975;50.390;8.640;2023-02-03T00:12:20;100039.34;;;6.31;100.00
54389;BME280;40975;50.390;8.640;2023-02-03T00:14:45;100033.03;;;6.34;100.00
54389;BME280;40975;50.390;8.640;2023-02-03T00:17:10;100035.88;;;6.31;100.00
54389;BME280;40975;50.390;8.640;2023-02-03T00:19:36;100046.63;;;6.28;100.00
54389;BME280;40975;50.390;8.640;2023-02-03T00:22:01;100061.97;;;6.35;100.00
54389;BME280;40975;50.390;8.640;2023-02-03T00:24:27;100054.88;;;6.36;100.00
54389;BME280;40975;50.390;8.640;2023-02-03T00:26:52;100050.13;;;6.28;100.00
54389;BME280;40975;50.390;8.640;2023-02-03T00:29:17;100052.75;;;6.28;100.00
54389;BME280;40975;50.390;8.640;2023-02-03T00:31:45;100053.41;;;6.32;100.00
54389;BME280;40975;50.390;8.640;2023-02-03T00:34:10;100049.81;;;6.33;100.00
54389;BME280;40975;50.390;8.640;2023-02-03T00:36:38;100038.59;;;6.29;100.00
54389;BME280;40975;50.390;8.640;2023-02-03T00:39:03;100019.59;;;6.24;100.00
54389;BME280;40975;50.390;8.640;2023-02-03T00:41:29;100026.47;;;6.27;100.00
54389;BME280;40975;50.390;8.640;2023-02-03T00:43:58;100012.16;;;6.31;100.00
54389;BME280;40975;50.390;8.640;2023-02-03T00:46:23;100000.97;;;6.27;100.00
54389;BME280;40975;50.390;8.640;2023-02-03T00:48:48;99988.72;;;6.26;100.00
54389;BME280;40975;50.390;8.640;2023-02-03T00:51:14;99963.41;;;6.24;100.00
54389;BME280;40975;50.390;8.640;2023-02-03T00:53:39;99956.34;;;6.24;100.00
54389;BME280;40975;50.390;8.640;2023-02-03T00:56:05;99971.75;;;6.30;100.00
54389;BME280;40975;50.390;8.640;2023-02-03T00:58:37;99992.41;;;6.24;100.00
54389;BME280;40975;50.390;8.640;2023-02-03T01:01:03;100012.25;;;6.29;100.00
54389;BME280;40975;50.390;8.640;2023-02-03T01:03:28;100000.88;;;6.29;100.00
54389;BME280;40975;50.390;8.640;2023-02-03T01:05:53;99985.22;;;6.26;100.00
54389;BME280;40975;50.390;8.640;2023-02-03T01:08:19;99963.19;;;6.27;100.00
54389;BME280;40975;50.390;8.640;2023-02-03T01:10:44;99964.78;;;6.29;100.00
54389;BME280;40975;50.390;8.640;2023-02-03T01:13:09;99953.53;;;6.27;100.00
54389;BME280;40975;50.390;8.640;2023-02-03T01:15:35;99953.53;;;6.27;100.00
54389;BME280;40975;50.390;8.640;2023-02-03T01:18:00;99976.31;;;6.28;100.00
54389;BME280;40975;50.390;8.640;2023-02-03T01:20:25;99965.75;;;6.28;100.00
54389;BME280;40975;50.390;8.640;2023-02-03T01:22:51;99963.00;;;6.30;100.00
54389;BME280;40975;50.390;8.640;2023-02-03T01:25:16;99971.09;;;6.27;100.00
54389;BME280;40975;50.390;8.640;2023-02-03T01:27:41;99974.50;;;6.29;100.00
54389;BME280;40975;50.390;8.640;2023-02-03T01:30:07;99973.56;;;6.30;100.00
54389;BME280;40975;50.390;8.640;2023-02-03T01:32:33;99973.75;;;6.27;100.00
54389;BME280;40975;50.390;8.640;2023-02-03T01:34:58;99964.78;;;6.29;100.00
54389;BME280;40975;50.390;8.640;2023-02-03T01:37:23;99971.47;;;6.35;100.00
54389;BME280;40975;50.390;8.640;2023-02-03T01:39:49;99961.84;;;6.34;100.00
54389;BME280;40975;50.390;8.640;2023-02-03T01:42:15;99955.75;;;6.33;100.00
54389;BME280;40975;50.390;8.640;2023-02-03T01:44:45;99969.28;;;6.42;100.00
54389;BME280;40975;50.390;8.640;2023-02-03T01:49:47;99961.84;;;6.34;100.00
54389;BME280;40975;50.390;8.640;2023-02-03T01:52:14;99962.59;;;6.36;100.00
54389;BME280;40975;50.390;8.640;2023-02-03T01:54:43;99952.06;;;6.36;100.00
54389;BME280;40975;50.390;8.640;2023-02-03T01:57:14;99951.88;;;6.39;100.00
54389;BME280;40975;50.390;8.640;2023-02-03T01:59:41;99944.78;;;6.40;100.00
54389;BME280;40975;50.390;8.640;2023-02-03T02:02:08;99953.69;;;6.38;100.00
54389;BME280;40975;50.390;8.640;2023-02-03T02:04:40;99957.34;;;6.36;100.00
54389;BME280;40975;50.390;8.640;2023-02-03T02:07:08;99960.06;;;6.34;100.00
54389;BME280;40975;50.390;8.640;2023-02-03T02:09:34;99968.09;;;6.33;100.00
54389;BME280;40975;50.390;8.640;2023-02-03T02:12:00;99966.94;;;6.37;100.00
54389;BME280;40975;50.390;8.640;2023-02-03T02:14:25;99972.78;;;6.42;100.00
54389;BME280;40975;50.390;8.640;2023-02-03T02:17:01;99961.66;;;6.37;100.00
54389;BME280;40975;50.390;8.640;2023-02-03T02:22:43;99963.94;;;6.43;100.00
54389;BME280;40975;50.390;8.640;2023-02-03T02:33:58;99975.94;;;6.47;100.00
54389;BME280;40975;50.390;8.640;2023-02-03T02:39:24;99981.38;;;6.59;100.00
54389;BME280;40975;50.390;8.640;2023-02-03T02:42:03;99986.94;;;6.54;100.00
54389;BME280;40975;50.390;8.640;2023-02-03T02:44:38;99996.66;;;6.53;100.00
54389;BME280;40975;50.390;8.640;2023-02-03T02:47:15;99988.03;;;6.64;100.00
54389;BME280;40975;50.390;8.640;2023-02-03T02:52:17;99976.22;;;6.57;100.00
54389;BME280;40975;50.390;8.640;2023-02-03T02:54:48;99975.91;;;6.62;100.00
54389;BME280;40975;50.390;8.640;2023-02-03T02:57:17;99970.81;;;6.59;100.00
54389;BME280;40975;50.390;8.640;2023-02-03T02:59:45;99963.84;;;6.58;100.00
54389;BME280;40975;50.390;8.640;2023-02-03T03:02:11;99967.44;;;6.57;100.00
54389;BME280;40975;50.390;8.640;2023-02-03T03:04:38;99967.25;;;6.60;100.00
54389;BME280;40975;50.390;8.640;2023-02-03T03:07:11;99969.69;;;6.63;100.00
54389;BME280;40975;50.390;8.640;2023-02-03T03:09:54;99990.56;;;6.66;100.00
54389;BME280;40975;50.390;8.640;2023-02-03T03:12:29;99984.75;;;6.61;100.00
54389;BME280;40975;50.390;8.640;2023-02-03T03:15:00;99980.97;;;6.65;100.00
54389;BME280;40975;50.390;8.640;2023-02-03T03:17:30;99968.72;;;6.64;100.00
54389;BME280;40975;50.390;8.640;2023-02-03T03:20:01;99957.16;;;6.66;100.00
54389;BME280;40975;50.390;8.640;2023-02-03T03:22:34;99947.84;;;6.61;100.00
54389;BME280;40975;50.390;8.640;2023-02-03T03:25:18;99937.94;;;6.64;100.00
54389;BME280;40975;50.390;8.640;2023-02-03T03:27:52;99932.47;;;6.67;100.00
54389;BME280;40975;50.390;8.640;2023-02-03T03:30:28;99934.53;;;6.62;100.00
54389;BME280;40975;50.390;8.640;2023-02-03T03:32:56;99933.72;;;6.62;100.00
54389;BME280;40975;50.390;8.640;2023-02-03T03:35:23;99925.78;;;6.62;100.00
54389;BME280;40975;50.390;8.640;2023-02-03T03:38:06;99929.38;;;6.61;100.00
54389;BME280;40975;50.390;8.640;2023-02-03T03:40:37;99943.94;;;6.66;100.00
54389;BME280;40975;50.390;8.640;2023-02-03T03:43:14;99948.19;;;6.69;100.00
54389;BME280;40975;50.390;8.640;2023-02-03T03:46:09;99934.22;;;6.67;100.00
54389;BME280;40975;50.390;8.640;2023-02-03T03:48:41;99928.31;;;6.63;100.00
54389;BME280;40975;50.390;8.640;2023-02-03T03:51:17;99924.09;;;6.61;100.00
54389;BME280;40975;50.390;8.640;2023-02-03T03:53:44;99912.59;;;6.62;100.00
54389;BME280;40975;50.390;8.640;2023-02-03T03:56:18;99900.09;;;6.51;100.00
54389;BME280;40975;50.390;8.640;2023-02-03T03:58:45;99912.03;;;6.57;100.00
54389;BME280;40975;50.390;8.640;2023-02-03T04:01:14;99926.19;;;6.56;100.00
54389;BME280;40975;50.390;8.640;2023-02-03T04:03:44;99935.47;;;6.61;100.00
54389;BME280;40975;50.390;8.640;2023-02-03T04:06:11;99936.34;;;6.62;100.00
54389;BME280;40975;50.390;8.640;2023-02-03T04:08:37;99951.88;;;6.66;100.00
54389;BME280;40975;50.390;8.640;2023-02-03T04:11:03;99954.28;;;6.69;100.00
54389;BME280;40975;50.390;8.640;2023-02-03T04:13:28;99962.31;;;6.68;100.00
54389;BME280;40975;50.390;8.640;2023-02-03T04:15:54;99953.16;;;6.74;100.00
54389;BME280;40975;50.390;8.640;2023-02-03T04:18:19;99932.22;;;6.71;100.00
54389;BME280;40975;50.390;8.640;2023-02-03T04:20:44;99923.19;;;6.75;100.00
54389;BME280;40975;50.390;8.640;2023-02-03T04:23:10;99939.00;;;6.75;100.00
54389;BME280;40975;50.390;8.640;2023-02-03T04:25:35;99961.69;;;6.77;100.00
54389;BME280;40975;50.390;8.640;2023-02-03T04:28:00;99975.09;;;6.74;100.00
54389;BME280;40975;50.390;8.640;2023-02-03T04:30:26;99968.88;;;6.75;100.00
54389;BME280;40975;50.390;8.640;2023-02-03T04:32:51;99974.88;;;6.77;100.00
54389;BME280;40975;50.390;8.640;2023-02-03T04:35:17;99977.41;;;6.79;100.00
54389;BME280;40975;50.390;8.640;2023-02-03T04:37:43;99974.59;;;6.82;100.00
54389;BME280;40975;50.390;8.640;2023-02-03T04:40:09;99965.19;;;6.78;100.00
54389;BME280;40975;50.390;8.640;2023-02-03T04:42:36;99957.28;;;6.78;100.00
54389;BME280;40975;50.390;8.640;2023-02-03T04:45:03;99955.38;;;6.80;100.00
54389;BME280;40975;50.390;8.640;2023-02-03T04:47:29;99951.69;;;6.82;100.00
54389;BME280;40975;50.390;8.640;2023-02-03T04:49:54;99952.41;;;6.84;100.00
54389;BME280;40975;50.390;8.640;2023-02-03T04:52:19;99959.69;;;6.81;100.00
54389;BME280;40975;50.390;8.640;2023-02-03T04:54:44;99947.56;;;6.78;100.00
54389;BME280;40975;50.390;8.640;2023-02-03T04:57:10;99931.41;;;6.70;100.00
54389;BME280;40975;50.390;8.640;2023-02-03T04:59:35;99939.75;;;6.77;100.00
54389;BME280;40975;50.390;8.640;2023-02-03T05:02:01;99929.28;;;6.75;100.00
54389;BME280;40975;50.390;8.640;2023-02-03T05:04:28;99915.56;;;6.70;100.00
54389;BME280;40975;50.390;8.640;2023-02-03T05:06:53;99919.16;;;6.69;100.00
54389;BME280;40975;50.390;8.640;2023-02-03T05:09:20;99926.31;;;6.67;100.00
54389;BME280;40975;50.390;8.640;2023-02-03T05:11:45;99925.69;;;6.63;100.00
54389;BME280;40975;50.390;8.640;2023-02-03T05:14:11;99922.22;;;6.63;100.00
54389;BME280;40975;50.390;8.640;2023-02-03T05:16:36;99915.25;;;6.62;100.00
54389;BME280;40975;50.390;8.640;2023-02-03T05:19:01;99912.69;;;6.60;100.00
54389;BME280;40975;50.390;8.640;2023-02-03T05:21:27;99902.56;;;6.54;100.00
54389;BME280;40975;50.390;8.640;2023-02-03T05:23:52;99906.78;;;6.57;100.00
54389;BME280;40975;50.390;8.640;2023-02-03T05:26:18;99887.03;;;6.49;100.00
54389;BME280;40975;50.390;8.640;2023-02-03T05:28:43;99894.66;;;6.54;100.00
54389;BME280;40975;50.390;8.640;2023-02-03T05:31:08;99892.53;;;6.59;100.00
54389;BME280;40975;50.390;8.640;2023-02-03T05:33:34;99899.31;;;6.63;100.00
54389;BME280;40975;50.390;8.640;2023-02-03T05:35:59;99909.53;;;6.68;100.00
54389;BME280;40975;50.390;8.640;2023-02-03T05:38:24;99918.09;;;6.72;100.00
54389;BME280;40975;50.390;8.640;2023-02-03T05:40:51;99897.50;;;6.64;100.00
54389;BME280;40975;50.390;8.640;2023-02-03T05:43:36;99895.41;;;6.69;100.00
54389;BME280;40975;50.390;8.640;2023-02-03T05:46:02;99907.84;;;6.67;100.00
54389;BME280;40975;50.390;8.640;2023-02-03T05:48:28;99905.22;;;6.67;100.00
54389;BME280;40975;50.390;8.640;2023-02-03T05:50:53;99907.66;;;6.70;100.00
54389;BME280;40975;50.390;8.640;2023-02-03T05:53:18;99912.63;;;6.75;100.00
54389;BME280;40975;50.390;8.640;2023-02-03T05:55:44;99902.19;;;6.73;100.00
54389;BME280;40975;50.390;8.640;2023-02-03T05:58:09;99902.38;;;6.70;100.00
54389;BME280;40975;50.390;8.640;2023-02-03T06:00:35;99905.97;;;6.69;100.00
54389;BME280;40975;50.390;8.640;2023-02-03T06:03:01;99908.72;;;6.67;100.00
54389;BME280;40975;50.390;8.640;2023-02-03T06:05:29;99888.25;;;6.71;100.00
54389;BME280;40975;50.390;8.640;2023-02-03T06:07:55;99897.09;;;6.70;100.00
54389;BME280;40975;50.390;8.640;2023-02-03T06:10:21;99884.03;;;6.68;100.00
54389;BME280;40975;50.390;8.640;2023-02-03T06:12:46;99897.09;;;6.70;100.00
54389;BME280;40975;50.390;8.640;2023-02-03T06:15:12;99891.09;;;6.68;100.00
54389;BME280;40975;50.390;8.640;2023-02-03T06:17:37;99889.59;;;6.64;100.00
54389;BME280;40975;50.390;8.640;2023-02-03T06:20:04;99883.16;;;6.68;100.00
54389;BME280;40975;50.390;8.640;2023-02-03T06:22:30;99885.28;;;6.63;100.00
54389;BME280;40975;50.390;8.640;2023-02-03T06:24:55;99898.25;;;6.66;100.00
54389;BME280;40975;50.390;8.640;2023-02-03T06:27:21;99896.56;;;6.65;100.00
54389;BME280;40975;50.390;8.640;2023-02-03T06:29:46;99894.78;;;6.65;100.00
54389;BME280;40975;50.390;8.640;2023-02-03T06:32:11;99894.66;;;6.67;100.00
54389;BME280;40975;50.390;8.640;2023-02-03T06:34:37;99907.84;;;6.67;100.00
54389;BME280;40975;50.390;8.640;2023-02-03T06:37:02;99904.06;;;6.71;100.00
54389;BME280;40975;50.390;8.640;2023-02-03T06:39:27;99912.06;;;6.69;100.00
54389;BME280;40975;50.390;8.640;2023-02-03T06:41:53;99910.41;;;6.68;100.00
54389;BME280;40975;50.390;8.640;2023-02-03T06:44:20;99905.34;;;6.65;100.00
54389;BME280;40975;50.390;8.640;2023-02-03T06:46:45;99897.41;;;6.65;100.00
54389;BME280;40975;50.390;8.640;2023-02-03T06:49:10;99906.28;;;6.64;100.00
54389;BME280;40975;50.390;8.640;2023-02-03T06:51:36;99900.38;;;6.74;100.00
54389;BME280;40975;50.390;8.640;2023-02-03T06:54:01;99894.03;;;6.76;100.00
54389;BME280;40975;50.390;8.640;2023-02-03T06:56:28;99904.59;;;6.76;100.00
54389;BME280;40975;50.390;8.640;2023-02-03T06:58:53;99929.41;;;6.74;100.00
54389;BME280;40975;50.390;8.640;2023-02-03T07:01:18;99923.19;;;6.75;100.00
54389;BME280;40975;50.390;8.640;2023-02-03T07:03:44;99911.88;;;6.73;100.00
54389;BME280;40975;50.390;8.640;2023-02-03T07:06:09;99927.72;;;6.73;100.00
54389;BME280;40975;50.390;8.640;2023-02-03T07:08:34;99923.28;;;6.73;100.00
54389;BME280;40975;50.390;8.640;2023-02-03T07:11:00;99903.91;;;6.87;100.00
54389;BME280;40975;50.390;8.640;2023-02-03T07:13:26;99901.75;;;6.79;100.00
54389;BME280;40975;50.390;8.640;2023-02-03T07:15:51;99900.06;;;6.78;100.00
54389;BME280;40975;50.390;8.640;2023-02-03T07:18:16;99879.91;;;6.77;100.00
54389;BME280;40975;50.390;8.640;2023-02-03T07:20:43;99885.06;;;6.79;100.00
54389;BME280;40975;50.390;8.640;2023-02-03T07:23:08;99899.56;;;6.86;100.00
54389;BME280;40975;50.390;8.640;2023-02-03T07:25:33;99903.97;;;6.85;100.00
54389;BME280;40975;50.390;8.640;2023-02-03T07:27:59;99917.59;;;6.92;100.00
54389;BME280;40975;50.390;8.640;2023-02-03T07:30:24;99898.50;;;6.89;100.00
54389;BME280;40975;50.390;8.640;2023-02-03T07:32:50;99900.09;;;6.91;100.00
54389;BME280;40975;50.390;8.640;2023-02-03T07:35:16;99903.34;;;6.95;100.00
54389;BME280;40975;50.390;8.640;2023-02-03T07:37:42;99894.41;;;6.97;100.00
54389;BME280;40975;50.390;8.640;2023-02-03T07:40:09;99913.59;;;6.99;100.00
54389;BME280;40975;50.390;8.640;2023-02-03T07:42:34;99915.09;;;7.04;100.00
54389;BME280;40975;50.390;8.640;2023-02-03T07:45:00;99916.66;;;7.06;100.00
54389;BME280;40975;50.390;8.640;2023-02-03T07:47:25;99919.09;;;7.09;100.00
54389;BME280;40975;50.390;8.640;2023-02-03T07:49:51;99919.31;;;7.06;100.00
54389;BME280;40975;50.390;8.640;2023-02-03T07:52:16;99919.09;;;7.09;100.00
54389;BME280;40975;50.390;8.640;2023-02-03T07:54:41;99926.28;;;7.07;100.00
54389;BME280;40975;50.390;8.640;2023-02-03T07:57:07;99928.41;;;7.02;100.00
54389;BME280;40975;50.390;8.640;2023-02-03T07:59:32;99935.56;;;7.00;100.00
54389;BME280;40975;50.390;8.640;2023-02-03T08:01:57;99926.72;;;7.01;100.00
54389;BME280;40975;50.390;8.640;2023-02-03T08:04:23;99934.41;;;7.04;100.00
54389;BME280;40975;50.390;8.640;2023-02-03T08:06:48;99943.50;;;7.00;100.00
54389;BME280;40975;50.390;8.640;2023-02-03T08:09:14;99945.06;;;7.03;100.00
54389;BME280;40975;50.390;8.640;2023-02-03T08:11:39;99951.94;;;7.05;100.00
54389;BME280;40975;50.390;8.640;2023-02-03T08:14:04;99925.66;;;7.04;100.00
54389;BME280;40975;50.390;8.640;2023-02-03T08:16:30;99920.38;;;7.04;100.00
54389;BME280;40975;50.390;8.640;2023-02-03T08:18:56;99910.13;;;7.12;100.00
54389;BME280;40975;50.390;8.640;2023-02-03T08:21:21;99911.31;;;7.08;100.00
54389;BME280;40975;50.390;8.640;2023-02-03T08:23:47;99912.34;;;7.05;100.00
54389;BME280;40975;50.390;8.640;2023-02-03T08:26:12;99910.88;;;7.14;100.00
54389;BME280;40975;50.390;8.640;2023-02-03T08:28:37;99914.56;;;7.11;100.00
54389;BME280;40975;50.390;8.640;2023-02-03T08:31:09;99912.56;;;7.15;100.00
54389;BME280;40975;50.390;8.640;2023-02-03T08:33:35;99897.56;;;7.15;100.00
54389;BME280;40975;50.390;8.640;2023-02-03T08:36:00;99891.34;;;7.16;100.00
54389;BME280;40975;50.390;8.640;2023-02-03T08:38:27;99893.03;;;7.18;100.00
54389;BME280;40975;50.390;8.640;2023-02-03T08:40:52;99874.53;;;7.18;100.00
54389;BME280;40975;50.390;8.640;2023-02-03T08:43:17;99868.19;;;7.20;100.00
54389;BME280;40975;50.390;8.640;2023-02-03T08:45:43;99869.06;;;7.21;100.00
54389;BME280;40975;50.390;8.640;2023-02-03T08:48:08;99870.63;;;7.23;100.00
54389;BME280;40975;50.390;8.640;2023-02-03T08:50:33;99878.88;;;7.31;100.00
54389;BME280;40975;50.390;8.640;2023-02-03T08:52:59;99881.75;;;7.28;100.00
54389;BME280;40975;50.390;8.640;2023-02-03T08:55:24;99875.16;;;7.34;100.00
54389;BME280;40975;50.390;8.640;2023-02-03T08:57:49;99871.47;;;7.37;100.00
54389;BME280;40975;50.390;8.640;2023-02-03T09:00:15;99877.59;;;7.37;100.00
54389;BME280;40975;50.390;8.640;2023-02-03T09:02:40;99895.75;;;7.42;100.00
54389;BME280;40975;50.390;8.640;2023-02-03T09:05:06;99889.03;;;7.38;100.00
54389;BME280;40975;50.390;8.640;2023-02-03T09:07:31;99890.38;;;7.43;100.00
54389;BME280;40975;50.390;8.640;2023-02-03T09:09:57;99894.69;;;7.44;100.00
54389;BME280;40975;50.390;8.640;2023-02-03T09:12:22;99885.63;;;7.49;100.00
54389;BME280;40975;50.390;8.640;2023-02-03T09:14:47;99869.44;;;7.53;100.00
54389;BME280;40975;50.390;8.640;2023-02-03T09:17:12;99864.84;;;7.68;100.00
54389;BME280;40975;50.390;8.640;2023-02-03T09:19:38;99855.44;;;7.77;100.00
54389;BME280;40975;50.390;8.640;2023-02-03T09:22:04;99858.91;;;7.77;100.00
54389;BME280;40975;50.390;8.640;2023-02-03T09:24:29;99856.13;;;7.92;100.00
54389;BME280;40975;50.390;8.640;2023-02-03T09:26:55;99875.75;;;8.01;100.00
54389;BME280;40975;50.390;8.640;2023-02-03T09:29:21;99871.88;;;8.18;100.00
54389;BME280;40975;50.390;8.640;2023-02-03T09:31:48;99852.88;;;8.13;100.00
54389;BME280;40975;50.390;8.640;2023-02-03T09:34:17;99857.75;;;8.30;100.00
54389;BME280;40975;50.390;8.640;2023-02-03T09:36:42;99869.56;;;8.37;100.00
54389;BME280;40975;50.390;8.640;2023-02-03T09:39:07;99873.06;;;8.38;100.00
54389;BME280;40975;50.390;8.640;2023-02-03T09:46:43;99854.84;;;8.93;98.50
54389;BME280;40975;50.390;8.640;2023-02-03T09:49:17;99856.75;;;8.80;100.00
54389;BME280;40975;50.390;8.640;2023-02-03T09:56:59;99858.19;;;8.95;100.00
54389;BME280;40975;50.390;8.640;2023-02-03T09:59:30;99845.81;;;9.30;100.00
54389;BME280;40975;50.390;8.640;2023-02-03T10:02:22;99848.09;;;9.00;99.60
54389;BME280;40975;50.390;8.640;2023-02-03T10:04:59;99858.34;;;9.05;100.00
54389;BME280;40975;50.390;8.640;2023-02-03T10:07:40;99856.91;;;9.24;100.00
54389;BME280;40975;50.390;8.640;2023-02-03T10:12:49;99866.41;;;8.92;100.00
54389;BME280;40975;50.390;8.640;2023-02-03T10:18:27;99873.34;;;8.82;100.00
54389;BME280;40975;50.390;8.640;2023-02-03T10:21:00;99869.31;;;8.65;100.00
54389;BME280;40975;50.390;8.640;2023-02-03T10:23:30;99884.97;;;8.68;100.00
54389;BME280;40975;50.390;8.640;2023-02-03T10:26:00;99895.28;;;8.60;100.00
54389;BME280;40975;50.390;8.640;2023-02-03T10:28:34;99891.19;;;8.55;100.00
54389;BME280;40975;50.390;8.640;2023-02-03T10:31:05;99895.28;;;8.60;100.00
54389;BME280;40975;50.390;8.640;2023-02-03T10:33:37;99890.59;;;8.39;100.00
54389;BME280;40975;50.390;8.640;2023-02-03T10:36:22;99888.25;;;8.23;100.00
54389;BME280;40975;50.390;8.640;2023-02-03T10:39:13;99868.88;;;8.22;100.00
54389;BME280;40975;50.390;8.640;2023-02-03T10:41:40;99875.94;;;8.35;100.00
54389;BME280;40975;50.390;8.640;2023-02-03T10:44:07;99857.88;;;8.53;100.00
54389;BME280;40975;50.390;8.640;2023-02-03T10:46:37;99854.78;;;8.70;100.00
54389;BME280;40975;50.390;8.640;2023-02-03T10:49:04;99843.00;;;8.75;100.00
54389;BME280;40975;50.390;8.640;2023-02-03T10:51:36;99834.00;;;8.89;100.00
54389;BME280;40975;50.390;8.640;2023-02-03T10:54:02;99832.47;;;9.20;100.00
54389;BME280;40975;50.390;8.640;2023-02-03T10:56:35;99826.66;;;9.03;100.00
54389;BME280;40975;50.390;8.640;2023-02-03T10:59:02;99829.94;;;9.07;100.00
54389;BME280;40975;50.390;8.640;2023-02-03T11:01:39;99822.47;;;9.01;100.00
54389;BME280;40975;50.390;8.640;2023-02-03T11:04:06;99830.41;;;9.24;100.00
54389;BME280;40975;50.390;8.640;2023-02-03T11:07:01;99835.94;;;8.86;100.00
54389;BME280;40975;50.390;8.640;2023-02-03T11:09:33;99838.69;;;8.96;100.00
54389;BME280;40975;50.390;8.640;2023-02-03T11:12:13;99849.03;;;8.88;100.00
54389;BME280;40975;50.390;8.640;2023-02-03T11:14:48;99850.25;;;8.95;100.00
54389;BME280;40975;50.390;8.640;2023-02-03T11:17:19;99862.84;;;8.80;100.00
54389;BME280;40975;50.390;8.640;2023-02-03T11:19:48;99867.94;;;8.48;100.00
54389;BME280;40975;50.390;8.640;2023-02-03T11:22:32;99877.34;;;8.28;100.00
54389;BME280;40975;50.390;8.640;2023-02-03T11:25:01;99884.97;;;8.19;100.00
54389;BME280;40975;50.390;8.640;2023-02-03T11:27:31;99889.56;;;8.17;100.00
54389;BME280;40975;50.390;8.640;2023-02-03T11:30:19;99893.63;;;7.97;100.00
54389;BME280;40975;50.390;8.640;2023-02-03T11:32:49;99893.25;;;7.77;100.00
54389;BME280;40975;50.390;8.640;2023-02-03T11:35:23;99886.41;;;7.75;100.00
54389;BME280;40975;50.390;8.640;2023-02-03T11:37:54;99875.44;;;7.68;100.00
54389;BME280;40975;50.390;8.640;2023-02-03T11:50:34;99835.22;;;7.39;100.00
54389;BME280;40975;50.390;8.640;2023-02-03T11:56:11;99818.38;;;7.28;100.00
54389;BME280;40975;50.390;8.640;2023-02-03T11:58:50;99803.47;;;7.27;100.00
54389;BME280;40975;50.390;8.640;2023-02-03T12:07:17;99793.81;;;7.39;100.00
54389;BME280;40975;50.390;8.640;2023-02-03T12:09:59;99789.00;;;7.33;100.00
54389;BME280;40975;50.390;8.640;2023-02-03T12:12:42;99794.38;;;7.31;100.00
54389;BME280;40975;50.390;8.640;2023-02-03T12:21:26;99824.47;;;7.29;100.00
54389;BME280;40975;50.390;8.640;2023-02-03T12:29:29;99860.28;;;7.20;100.00
54389;BME280;40975;50.390;8.640;2023-02-03T12:34:28;99861.66;;;7.26;100.00
54389;BME280;40975;50.390;8.640;2023-02-03T12:37:05;99844.69;;;7.17;100.00
54389;BME280;40975;50.390;8.640;2023-02-03T12:39:41;99840.44;;;7.14;100.00
54389;BME280;40975;50.390;8.640;2023-02-03T12:42:16;99837.72;;;7.16;100.00
54389;BME280;40975;50.390;8.640;2023-02-03T12:44:47;99823.13;;;7.10;100.00
54389;BME280;40975;50.390;8.640;2023-02-03T12:49:50;99813.66;;;7.08;100.00
54389;BME280;40975;50.390;8.640;2023-02-03T12:55:14;99785.03;;;7.02;100.00
54389;BME280;40975;50.390;8.640;2023-02-03T12:58:02;99784.81;;;7.05;100.00
54389;BME280;40975;50.390;8.640;2023-02-03T13:00:50;99793.78;;;7.02;100.00
54389;BME280;40975;50.390;8.640;2023-02-03T13:03:35;99783.25;;;7.02;100.00
54389;BME280;40975;50.390;8.640;2023-02-03T13:08:53;99786.38;;;7.07;100.00
54389;BME280;40975;50.390;8.640;2023-02-03T13:11:37;99798.00;;;7.05;100.00
54389;BME280;40975;50.390;8.640;2023-02-03T13:14:19;99809.19;;;7.08;100.00
54389;BME280;40975;50.390;8.640;2023-02-03T13:16:50;99818.19;;;7.06;100.00
54389;BME280;40975;50.390;8.640;2023-02-03T13:19:21;99811.72;;;7.10;100.00
54389;BME280;40975;50.390;8.640;2023-02-03T13:21:48;99808.88;;;7.13;100.00
54389;BME280;40975;50.390;8.640;2023-02-03T13:24:14;99811.63;;;7.11;100.00
54389;BME280;40975;50.390;8.640;2023-02-03T13:26:58;99813.53;;;7.09;100.00
54389;BME280;40975;50.390;8.640;2023-02-03T13:29:57;99809.81;;;7.12;100.00
54389;BME280;40975;50.390;8.640;2023-02-03T13:32:41;99809.81;;;7.12;100.00
54389;BME280;40975;50.390;8.640;2023-02-03T13:35:18;99807.81;;;7.15;100.00
54389;BME280;40975;50.390;8.640;2023-02-03T13:40:33;99808.44;;;7.32;100.00
54389;BME280;40975;50.390;8.640;2023-02-03T13:43:10;99797.00;;;7.31;100.00
54389;BME280;40975;50.390;8.640;2023-02-03T13:45:48;99781.06;;;7.33;100.00
54389;BME280;40975;50.390;8.640;2023-02-03T13:48:20;99776.63;;;7.34;100.00
54389;BME280;40975;50.390;8.640;2023-02-03T13:50:48;99781.03;;;7.46;100.00
54389;BME280;40975;50.390;8.640;2023-02-03T13:53:23;99779.13;;;7.48;100.00
54389;BME280;40975;50.390;8.640;2023-02-03T13:55:58;99788.72;;;7.49;100.00
54389;BME280;40975;50.390;8.640;2023-02-03T13:58:37;99788.50;;;7.52;100.00
54389;BME280;40975;50.390;8.640;2023-02-03T14:01:26;99790.38;;;7.63;100.00
54389;BME280;40975;50.390;8.640;2023-02-03T14:03:51;99772.59;;;7.65;100.00
54389;BME280;40975;50.390;8.640;2023-02-03T14:12:18;99810.13;;;7.70;100.00
54389;BME280;40975;50.390;8.640;2023-02-03T14:14:56;99805.31;;;7.75;100.00
54389;BME280;40975;50.390;8.640;2023-02-03T14:19:59;99799.16;;;7.88;100.00
54389;BME280;40975;50.390;8.640;2023-02-03T14:22:24;99801.97;;;7.73;100.00
54389;BME280;40975;50.390;8.640;2023-02-03T14:24:53;99801.97;;;7.73;100.00
54389;BME280;40975;50.390;8.640;2023-02-03T14:27:23;99806.72;;;7.68;100.00
54389;BME280;40975;50.390;8.640;2023-02-03T14:30:06;99800.38;;;7.71;100.00
54389;BME280;40975;50.390;8.640;2023-02-03T14:32:53;99797.84;;;7.69;100.00
54389;BME280;40975;50.390;8.640;2023-02-03T14:35:28;99794.13;;;7.72;100.00
54389;BME280;40975;50.390;8.640;2023-02-03T14:38:06;99798.25;;;7.76;100.00